Time;durP1;ratioP1;P1;durP2;ratioP2;P2;SDS_P1;SDS_P2;PMS_P1;PMS_P2;Temp;Humidity;BMP_temperature;BMP_pressure;BME280_temperature;BME280_humidity;BME280_pressure;Samples;Min_cycle;Max_cycle;Signal;HPM_P1;HPM_P2
2023/06/16 00:04:07;;;;;;;8.35;6.45;;;;;;;;;;10150766;28;20166;-67
2023/06/16 00:09:03;;;;;;;10.80;6.63;;;;;;;;;;10149563;28;20049;-68
2023/06/16 00:13:57;;;;;;;6.72;6.13;;;;;;;;;;10148874;28;20430;-69
2023/06/16 00:18:52;;;;;;;8.65;6.07;;;;;;;;;;10149239;28;20076;-70
2023/06/16 00:23:46;;;;;;;6.68;6.07;;;;;;;;;;10135380;28;20056;-70
2023/06/16 00:28:40;;;;;;;11.93;6.13;;;;;;;;;;10144772;28;20048;-71
2023/06/16 00:33:33;;;;;;;9.65;6.53;;;;;;;;;;10149467;28;20044;-69
2023/06/16 00:38:28;;;;;;;10.02;6.85;;;;;;;;;;10148414;28;20045;-69
2023/06/16 00:43:22;;;;;;;6.72;6.10;;;;;;;;;;10146927;28;20500;-69
2023/06/16 00:48:15;;;;;;;9.68;6.25;;;;;;;;;;10141829;28;20060;-70
2023/06/16 00:53:09;;;;;;;7.13;6.43;;;;;;;;;;10139121;28;20059;-70
2023/06/16 00:58:05;;;;;;;7.32;6.45;;;;;;;;;;10139504;28;20110;-69
2023/06/16 01:03:04;;;;;;;6.75;6.13;;;;;;;;;;10141984;28;20137;-70
2023/06/16 01:08:19;;;;;;;11.47;6.03;;;;;;;;;;10136655;28;20135;-69
2023/06/16 01:13:26;;;;;;;12.55;6.10;;;;;;;;;;10144642;28;20353;-70
2023/06/16 01:18:25;;;;;;;7.43;6.55;;;;;;;;;;10146045;28;20052;-71
2023/06/16 01:23:53;;;;;;;7.00;5.70;;;;;;;;;;10135280;28;20128;-70
2023/06/16 01:28:49;;;;;;;15.27;8.70;;;;;;;;;;10133455;28;20102;-71
2023/06/16 01:33:43;;;;;;;12.98;10.10;;;;;;;;;;10147242;28;20052;-70
2023/06/16 01:38:36;;;;;;;11.52;10.35;;;;;;;;;;10145843;28;20048;-70
2023/06/16 01:43:30;;;;;;;14.75;13.23;;;;;;;;;;10130487;28;20465;-70
2023/06/16 01:48:24;;;;;;;14.18;12.45;;;;;;;;;;10147727;28;20060;-71
2023/06/16 01:53:17;;;;;;;15.95;14.38;;;;;;;;;;10148020;28;20051;-70
2023/06/16 01:58:11;;;;;;;13.18;11.88;;;;;;;;;;10143392;28;20570;-71
2023/06/16 02:03:43;;;;;;;13.63;12.32;;;;;;;;;;10148650;28;20415;-71
2023/06/16 02:08:38;;;;;;;14.15;12.18;;;;;;;;;;10144805;28;20056;-71
2023/06/16 02:13:32;;;;;;;14.85;12.50;;;;;;;;;;10129238;28;20044;-71
2023/06/16 02:18:27;;;;;;;14.15;12.90;;;;;;;;;;10143362;28;20057;-71
2023/06/16 02:23:20;;;;;;;16.08;14.38;;;;;;;;;;10095846;28;20504;-71
2023/06/16 02:28:14;;;;;;;16.10;14.50;;;;;;;;;;10134146;28;20052;-71
2023/06/16 02:33:08;;;;;;;14.82;13.35;;;;;;;;;;10124530;28;20072;-71
2023/06/16 02:38:02;;;;;;;19.45;16.05;;;;;;;;;;10137099;28;20049;-70
2023/06/16 02:42:56;;;;;;;25.00;15.27;;;;;;;;;;10129071;28;20403;-71
2023/06/16 02:47:48;;;;;;;20.67;15.35;;;;;;;;;;10119625;28;20082;-71
2023/06/16 02:52:42;;;;;;;17.90;15.93;;;;;;;;;;10101861;28;20519;-71
2023/06/16 02:57:40;;;;;;;19.33;15.70;;;;;;;;;;10122746;28;20052;-71
2023/06/16 03:02:33;;;;;;;16.55;14.77;;;;;;;;;;10143021;28;20563;-71
2023/06/16 03:07:31;;;;;;;17.33;14.02;;;;;;;;;;10143689;28;20052;-71
2023/06/16 03:12:26;;;;;;;16.63;12.60;;;;;;;;;;10141414;28;20407;-71
2023/06/16 03:17:28;;;;;;;14.98;13.40;;;;;;;;;;10119395;28;20053;-72
2023/06/16 03:22:24;;;;;;;15.50;13.93;;;;;;;;;;10113900;28;20444;-71
2023/06/16 03:27:21;;;;;;;15.30;13.77;;;;;;;;;;10093471;28;20554;-70
2023/06/16 03:32:18;;;;;;;15.43;13.83;;;;;;;;;;10105886;28;20056;-70
2023/06/16 03:37:13;;;;;;;15.43;13.98;;;;;;;;;;10124978;28;20557;-70
2023/06/16 03:42:09;;;;;;;13.40;12.10;;;;;;;;;;10140864;28;20135;-70
2023/06/16 03:47:02;;;;;;;13.98;12.63;;;;;;;;;;10127233;28;20052;-71
2023/06/16 03:51:57;;;;;;;13.82;10.77;;;;;;;;;;10155011;28;20060;-71
2023/06/16 03:56:52;;;;;;;14.30;10.48;;;;;;;;;;10142260;28;20411;-70
2023/06/16 04:01:51;;;;;;;14.48;10.30;;;;;;;;;;10144123;28;20053;-71
2023/06/16 04:06:49;;;;;;;11.32;9.80;;;;;;;;;;10143071;28;20041;-71
2023/06/16 04:11:41;;;;;;;10.65;9.65;;;;;;;;;;10142725;28;20490;-71
2023/06/16 04:16:37;;;;;;;10.50;9.50;;;;;;;;;;10143150;28;20036;-71
2023/06/16 04:21:31;;;;;;;13.70;10.00;;;;;;;;;;10130563;28;20048;-71
2023/06/16 04:26:28;;;;;;;19.35;11.07;;;;;;;;;;10093386;28;20111;-71
2023/06/16 04:31:29;;;;;;;10.82;9.75;;;;;;;;;;10100729;28;20131;-71
2023/06/16 04:36:25;;;;;;;13.40;9.77;;;;;;;;;;10147760;28;20053;-71
2023/06/16 04:41:18;;;;;;;14.23;10.32;;;;;;;;;;10151621;28;20496;-71
2023/06/16 04:46:12;;;;;;;11.50;10.35;;;;;;;;;;10149385;28;20534;-71
2023/06/16 04:51:06;;;;;;;16.08;11.77;;;;;;;;;;10148869;28;20152;-71
2023/06/16 04:55:59;;;;;;;12.13;10.02;;;;;;;;;;10150573;28;20137;-71
2023/06/16 05:00:53;;;;;;;15.52;10.50;;;;;;;;;;10148744;28;20052;-71
2023/06/16 05:05:46;;;;;;;13.10;10.52;;;;;;;;;;10131604;28;20040;-71
2023/06/16 05:10:40;;;;;;;10.25;9.20;;;;;;;;;;10149688;28;20560;-71
2023/06/16 05:15:34;;;;;;;11.90;8.30;;;;;;;;;;10149163;28;20045;-72
2023/06/16 05:20:30;;;;;;;9.13;8.23;;;;;;;;;;10119143;28;20049;-71
2023/06/16 05:25:23;;;;;;;12.52;7.90;;;;;;;;;;10120915;28;20110;-71
2023/06/16 05:30:17;;;;;;;13.43;9.57;;;;;;;;;;10138378;28;20061;-71
2023/06/16 05:35:10;;;;;;;12.43;11.13;;;;;;;;;;10150023;28;20495;-71
2023/06/16 05:40:06;;;;;;;24.20;14.80;;;;;;;;;;10146949;28;20589;-72
2023/06/16 05:45:01;;;;;;;21.70;14.05;;;;;;;;;;10163684;28;20048;-72
2023/06/16 05:49:57;;;;;;;18.63;12.30;;;;;;;;;;10145347;28;20049;-72
2023/06/16 05:54:50;;;;;;;26.65;13.35;;;;;;;;;;10133120;28;20547;-70
2023/06/16 05:59:53;;;;;;;17.55;11.20;;;;;;;;;;10138872;28;20048;-69
2023/06/16 06:04:46;;;;;;;17.50;12.57;;;;;;;;;;10135346;28;20048;-72
2023/06/16 06:09:40;;;;;;;21.13;13.30;;;;;;;;;;10143102;28;20048;-69
2023/06/16 06:14:33;;;;;;;17.35;14.65;;;;;;;;;;10117102;28;20116;-69
2023/06/16 06:19:28;;;;;;;13.85;12.38;;;;;;;;;;10099027;28;20041;-71
2023/06/16 06:24:24;;;;;;;15.90;12.30;;;;;;;;;;10108201;28;20041;-78
2023/06/16 06:29:22;;;;;;;17.55;11.75;;;;;;;;;;10102150;28;20492;-76
2023/06/16 06:34:18;;;;;;;14.07;12.57;;;;;;;;;;10118898;28;20080;-75
2023/06/16 06:39:11;;;;;;;13.85;11.88;;;;;;;;;;10104848;28;20107;-76
2023/06/16 06:44:06;;;;;;;13.73;9.10;;;;;;;;;;10111388;28;20662;-75
2023/06/16 06:49:12;;;;;;;9.75;8.73;;;;;;;;;;10139402;28;20507;-76
2023/06/16 06:54:07;;;;;;;9.00;8.05;;;;;;;;;;10143939;28;20487;-76
2023/06/16 06:59:01;;;;;;;15.00;7.38;;;;;;;;;;10145637;28;20057;-76
2023/06/16 07:03:54;;;;;;;11.18;7.65;;;;;;;;;;10131616;28;20044;-76
2023/06/16 07:08:50;;;;;;;10.85;8.80;;;;;;;;;;10145174;28;20079;-77
2023/06/16 07:13:45;;;;;;;11.45;8.18;;;;;;;;;;10144583;28;20079;-76
2023/06/16 07:18:39;;;;;;;15.13;8.48;;;;;;;;;;10130686;28;20060;-75
2023/06/16 07:23:32;;;;;;;11.05;9.48;;;;;;;;;;10132795;28;20051;-76
2023/06/16 07:28:25;;;;;;;9.32;8.02;;;;;;;;;;10144786;28;20048;-75
2023/06/16 07:33:18;;;;;;;22.65;8.48;;;;;;;;;;10117980;28;20568;-75
2023/06/16 07:38:12;;;;;;;14.45;8.60;;;;;;;;;;10108933;28;20468;-75
2023/06/16 07:43:06;;;;;;;8.93;8.00;;;;;;;;;;10107693;28;20508;-76
2023/06/16 07:48:00;;;;;;;12.98;7.90;;;;;;;;;;10136271;28;20127;-75
2023/06/16 07:52:53;;;;;;;9.48;7.78;;;;;;;;;;10141600;28;20044;-75
2023/06/16 07:57:47;;;;;;;9.02;7.70;;;;;;;;;;10144319;28;20057;-75
2023/06/16 08:02:42;;;;;;;14.55;7.70;;;;;;;;;;10144601;28;20557;-75
2023/06/16 08:07:36;;;;;;;9.15;8.30;;;;;;;;;;10145539;28;20127;-75
2023/06/16 08:12:34;;;;;;;10.93;9.82;;;;;;;;;;10152144;28;20048;-75
2023/06/16 08:17:28;;;;;;;10.93;8.55;;;;;;;;;;10137138;28;20094;-75
2023/06/16 08:22:21;;;;;;;13.35;11.27;;;;;;;;;;10125180;28;20048;-76
2023/06/16 08:27:14;;;;;;;11.15;9.20;;;;;;;;;;10151165;28;20094;-76
2023/06/16 08:32:08;;;;;;;10.52;9.52;;;;;;;;;;10150552;28;20060;-76
2023/06/16 08:37:02;;;;;;;10.80;8.52;;;;;;;;;;10140968;28;20048;-75
2023/06/16 08:42:12;;;;;;;10.80;9.68;;;;;;;;;;10134069;28;20051;-76
2023/06/16 08:47:08;;;;;;;11.00;9.90;;;;;;;;;;10137544;28;20044;-75
2023/06/16 08:52:08;;;;;;;18.45;9.15;;;;;;;;;;10147938;28;20052;-75
2023/06/16 08:57:04;;;;;;;9.13;8.23;;;;;;;;;;10136977;28;20056;-76
2023/06/16 09:02:01;;;;;;;8.63;7.82;;;;;;;;;;10134897;28;20466;-76
2023/06/16 09:06:56;;;;;;;9.23;7.47;;;;;;;;;;10148311;28;20508;-75
2023/06/16 09:12:13;;;;;;;9.00;7.22;;;;;;;;;;10149805;28;20097;-76
2023/06/16 09:17:08;;;;;;;9.25;6.35;;;;;;;;;;10134814;28;20056;-76
2023/06/16 09:22:02;;;;;;;10.73;5.32;;;;;;;;;;10148698;28;20130;-75
2023/06/16 09:26:59;;;;;;;6.40;4.88;;;;;;;;;;10148932;28;20103;-75
2023/06/16 09:31:54;;;;;;;7.70;4.07;;;;;;;;;;10148925;28;20098;-76
2023/06/16 09:36:48;;;;;;;6.60;4.50;;;;;;;;;;10146866;28;20048;-76
2023/06/16 09:41:43;;;;;;;4.38;3.78;;;;;;;;;;10147640;28;20114;-76
2023/06/16 09:46:37;;;;;;;4.97;4.13;;;;;;;;;;10148064;28;20075;-76
2023/06/16 09:51:30;;;;;;;5.68;3.90;;;;;;;;;;10147249;28;20458;-76
2023/06/16 09:56:23;;;;;;;4.75;3.75;;;;;;;;;;10145181;28;20479;-76
2023/06/16 10:01:16;;;;;;;4.82;3.05;;;;;;;;;;10137785;28;20052;-76
2023/06/16 10:06:21;;;;;;;4.90;3.17;;;;;;;;;;10146405;28;20049;-76
2023/06/16 10:11:18;;;;;;;3.50;2.88;;;;;;;;;;10145252;28;20044;-77
2023/06/16 10:16:13;;;;;;;6.13;3.03;;;;;;;;;;10129330;28;20052;-77
2023/06/16 10:21:08;;;;;;;5.20;3.13;;;;;;;;;;10107984;28;20582;-76
2023/06/16 10:26:03;;;;;;;4.03;2.45;;;;;;;;;;10119724;28;20052;-77
2023/06/16 10:30:58;;;;;;;6.80;2.87;;;;;;;;;;10145677;28;20052;-77
2023/06/16 10:36:11;;;;;;;2.80;2.60;;;;;;;;;;10143796;28;20044;-76
2023/06/16 10:41:14;;;;;;;5.70;2.55;;;;;;;;;;10114381;28;20055;-77
2023/06/16 10:46:16;;;;;;;7.53;2.42;;;;;;;;;;10117702;28;20526;-77
2023/06/16 10:51:10;;;;;;;4.57;2.63;;;;;;;;;;10129824;28;20059;-78
2023/06/16 10:56:08;;;;;;;4.40;2.80;;;;;;;;;;10143959;28;20143;-78
2023/06/16 11:01:02;;;;;;;3.63;2.38;;;;;;;;;;10134212;28;20056;-78
2023/06/16 11:06:00;;;;;;;2.20;2.00;;;;;;;;;;10104065;28;21490;-77
2023/06/16 11:11:07;;;;;;;4.22;2.30;;;;;;;;;;10140512;28;21482;-77
2023/06/16 11:16:01;;;;;;;2.65;1.95;;;;;;;;;;10123445;28;20511;-77
2023/06/16 11:21:18;;;;;;;3.53;2.55;;;;;;;;;;10141552;28;20056;-78
2023/06/16 11:26:17;;;;;;;4.55;2.47;;;;;;;;;;10110889;28;20217;-78
2023/06/16 11:31:11;;;;;;;5.75;2.63;;;;;;;;;;10133610;28;20048;-78
2023/06/16 11:36:23;;;;;;;4.13;2.10;;;;;;;;;;10144795;28;20048;-78
2023/06/16 11:41:20;;;;;;;2.42;2.22;;;;;;;;;;10143718;28;20140;-79
2023/06/16 11:46:15;;;;;;;6.55;3.08;;;;;;;;;;10135712;28;20060;-78
2023/06/16 11:51:09;;;;;;;5.72;2.00;;;;;;;;;;10143080;28;20418;-78
2023/06/16 11:56:27;;;;;;;2.40;2.20;;;;;;;;;;10144287;28;20682;-76
2023/06/16 12:01:22;;;;;;;7.72;2.95;;;;;;;;;;10122053;28;20059;-75
2023/06/16 12:06:15;;;;;;;3.15;2.22;;;;;;;;;;10131324;28;20044;-76
2023/06/16 12:11:10;;;;;;;2.47;2.13;;;;;;;;;;10131168;28;20098;-75
2023/06/16 12:16:05;;;;;;;3.50;2.37;;;;;;;;;;10122531;28;20302;-75
2023/06/16 12:21:14;;;;;;;4.15;2.22;;;;;;;;;;10136557;28;20063;-75
2023/06/16 12:26:14;;;;;;;4.53;2.60;;;;;;;;;;10141457;28;20201;-75
2023/06/16 12:31:08;;;;;;;8.63;2.10;;;;;;;;;;10141831;28;20072;-76
2023/06/16 12:36:10;;;;;;;3.17;1.97;;;;;;;;;;10141997;28;20462;-75
2023/06/16 12:41:03;;;;;;;5.13;2.72;;;;;;;;;;10143355;28;20048;-75
2023/06/16 12:45:57;;;;;;;;;;;;;;;;;;10143670;28;20052;-78
2023/06/16 12:50:51;;;;;;;4.32;2.38;;;;;;;;;;10142047;28;19974;-78
2023/06/16 12:55:44;;;;;;;2.92;2.20;;;;;;;;;;10145672;28;20056;-77
2023/06/16 13:00:37;;;;;;;6.05;2.17;;;;;;;;;;10111702;28;20140;-77
2023/06/16 13:05:31;;;;;;;4.75;2.50;;;;;;;;;;10125101;28;20510;-77
2023/06/16 13:10:24;;;;;;;3.53;2.22;;;;;;;;;;10126907;28;20052;-77
2023/06/16 13:15:18;;;;;;;7.60;2.17;;;;;;;;;;10126321;28;20397;-77
2023/06/16 13:20:12;;;;;;;3.37;1.83;;;;;;;;;;10150160;28;20045;-77
2023/06/16 13:25:06;;;;;;;;;;;;;;;;;;10149130;28;20298;-76
2023/06/16 13:30:00;;;;;;;2.70;2.28;;;;;;;;;;10149877;28;19928;-76
2023/06/16 13:34:54;;;;;;;3.17;1.90;;;;;;;;;;10128643;28;20049;-72
2023/06/16 13:39:47;;;;;;;2.40;2.13;;;;;;;;;;10116523;28;20511;-73
2023/06/16 13:44:40;;;;;;;4.20;2.42;;;;;;;;;;10115353;28;20052;-73
2023/06/16 13:49:34;;;;;;;5.18;2.13;;;;;;;;;;10116070;28;20115;-73
2023/06/16 13:54:28;;;;;;;6.82;2.50;;;;;;;;;;10123473;28;20056;-73
2023/06/16 13:59:21;;;;;;;4.35;2.42;;;;;;;;;;10110893;28;20091;-72
2023/06/16 14:04:14;;;;;;;7.30;2.50;;;;;;;;;;10120791;28;20098;-73
2023/06/16 14:09:08;;;;;;;3.40;2.60;;;;;;;;;;10123439;28;20534;-73
2023/06/16 14:14:01;;;;;;;7.00;2.95;;;;;;;;;;10140020;28;20051;-75
2023/06/16 14:18:55;;;;;;;3.15;2.85;;;;;;;;;;10138303;28;20052;-75
2023/06/16 14:23:50;;;;;;;4.13;2.78;;;;;;;;;;10142027;28;20108;-75
2023/06/16 14:28:43;;;;;;;8.68;3.13;;;;;;;;;;10132498;28;20507;-76
2023/06/16 14:33:36;;;;;;;4.20;3.80;;;;;;;;;;10125792;28;20053;-75
2023/06/16 14:38:29;;;;;;;8.63;3.42;;;;;;;;;;10126074;28;20127;-75
2023/06/16 14:43:24;;;;;;;4.80;3.28;;;;;;;;;;10127328;28;20063;-75
2023/06/16 14:48:18;;;;;;;3.50;3.20;;;;;;;;;;10130150;28;20079;-75
2023/06/16 14:53:11;;;;;;;5.43;3.13;;;;;;;;;;10135827;28;20057;-76
2023/06/16 14:58:06;;;;;;;3.38;3.08;;;;;;;;;;10127085;28;20131;-75
2023/06/16 15:03:03;;;;;;;4.40;3.63;;;;;;;;;;10144911;28;20090;-75
2023/06/16 15:07:58;;;;;;;7.18;3.00;;;;;;;;;;10145931;28;20056;-75
2023/06/16 15:12:52;;;;;;;6.22;3.30;;;;;;;;;;10142590;28;20534;-75
2023/06/16 15:17:45;;;;;;;8.05;3.78;;;;;;;;;;10128957;28;20047;-75
2023/06/16 15:22:38;;;;;;;6.15;3.58;;;;;;;;;;10115612;28;20139;-75
2023/06/16 15:27:33;;;;;;;13.80;4.05;;;;;;;;;;10135940;28;20499;-74
2023/06/16 15:32:26;;;;;;;6.35;3.30;;;;;;;;;;10141896;28;20045;-73
2023/06/16 15:37:20;;;;;;;5.72;3.75;;;;;;;;;;10142847;28;20468;-72
2023/06/16 15:42:13;;;;;;;3.42;3.13;;;;;;;;;;10133651;28;20048;-73
2023/06/16 15:47:07;;;;;;;7.10;3.95;;;;;;;;;;10138191;28;20072;-73
2023/06/16 15:52:01;;;;;;;12.32;3.60;;;;;;;;;;10136676;28;20068;-69
2023/06/16 15:56:54;;;;;;;6.25;3.92;;;;;;;;;;10120758;28;20079;-69
2023/06/16 16:01:49;;;;;;;4.10;3.60;;;;;;;;;;10144797;28;20060;-69
2023/06/16 16:06:43;;;;;;;4.07;3.30;;;;;;;;;;10133818;28;20045;-70
2023/06/16 16:11:36;;;;;;;4.57;3.35;;;;;;;;;;10112578;28;20476;-70
2023/06/16 16:16:30;;;;;;;4.10;3.38;;;;;;;;;;10110330;28;20063;-69
2023/06/16 16:21:23;;;;;;;5.72;4.13;;;;;;;;;;10109923;28;20048;-70
2023/06/16 16:26:17;;;;;;;4.45;3.80;;;;;;;;;;10111568;28;20412;-69
2023/06/16 16:31:11;;;;;;;6.00;3.55;;;;;;;;;;10116715;28;20059;-70
2023/06/16 16:36:05;;;;;;;4.10;3.70;;;;;;;;;;10125075;28;20410;-72
2023/06/16 16:41:01;;;;;;;5.75;3.88;;;;;;;;;;10120558;28;20047;-73
2023/06/16 16:45:56;;;;;;;4.22;3.83;;;;;;;;;;10110789;28;20491;-71
2023/06/16 16:50:54;;;;;;;4.28;3.90;;;;;;;;;;10114604;28;20053;-66
2023/06/16 16:55:47;;;;;;;4.50;4.10;;;;;;;;;;10108908;28;20049;-70
2023/06/16 17:00:42;;;;;;;6.55;3.92;;;;;;;;;;10111146;28;20053;-69
2023/06/16 17:05:36;;;;;;;6.82;4.07;;;;;;;;;;10110128;28;20052;-70
2023/06/16 17:10:30;;;;;;;6.88;4.00;;;;;;;;;;10115037;28;20060;-71
2023/06/16 17:15:23;;;;;;;11.35;4.05;;;;;;;;;;10125117;28;20048;-71
2023/06/16 17:20:16;;;;;;;4.75;4.25;;;;;;;;;;10116534;28;20111;-71
2023/06/16 17:25:10;;;;;;;10.15;4.93;;;;;;;;;;10117903;28;20049;-71
2023/06/16 17:30:06;;;;;;;4.93;4.47;;;;;;;;;;10123028;28;20048;-72
2023/06/16 17:35:00;;;;;;;5.17;4.67;;;;;;;;;;10135505;28;20045;-71
2023/06/16 17:39:55;;;;;;;8.48;4.35;;;;;;;;;;10121914;28;20270;-73
2023/06/16 17:44:49;;;;;;;6.30;5.45;;;;;;;;;;10135404;28;20074;-73
2023/06/16 17:49:43;;;;;;;9.85;5.75;;;;;;;;;;10144647;28;20056;-73
2023/06/16 17:54:36;;;;;;;5.30;4.55;;;;;;;;;;10106707;28;20048;-72
2023/06/16 17:59:31;;;;;;;5.72;4.72;;;;;;;;;;10148044;28;20080;-72
2023/06/16 18:04:25;;;;;;;5.38;4.85;;;;;;;;;;10148640;28;20052;-72
2023/06/16 18:09:18;;;;;;;8.77;5.10;;;;;;;;;;10146137;28;20044;-73
2023/06/16 18:14:14;;;;;;;9.75;5.13;;;;;;;;;;10137285;28;20750;-71
2023/06/16 18:19:11;;;;;;;11.13;5.00;;;;;;;;;;10146883;28;20044;-68
2023/06/16 18:24:05;;;;;;;9.07;5.10;;;;;;;;;;10144266;28;20416;-66
2023/06/16 18:29:00;;;;;;;6.47;5.43;;;;;;;;;;10123992;28;20049;-64
2023/06/16 18:33:55;;;;;;;6.10;4.20;;;;;;;;;;10129699;28;20048;-68
2023/06/16 18:39:16;;;;;;;9.20;4.55;;;;;;;;;;10145572;28;20048;-68
2023/06/16 18:44:11;;;;;;;5.72;5.15;;;;;;;;;;10142238;28;20141;-69
2023/06/16 18:49:06;;;;;;;6.50;4.57;;;;;;;;;;10144012;28;20135;-69
2023/06/16 18:53:59;;;;;;;9.55;5.03;;;;;;;;;;10109953;28;20049;-69
2023/06/16 18:58:54;;;;;;;7.85;4.97;;;;;;;;;;10140878;28;20068;-69
2023/06/16 19:03:50;;;;;;;6.13;4.68;;;;;;;;;;10126690;28;20056;-69
2023/06/16 19:08:45;;;;;;;8.93;5.35;;;;;;;;;;10133043;28;20055;-68
2023/06/16 19:13:40;;;;;;;13.48;6.85;;;;;;;;;;10143615;28;20101;-69
2023/06/16 19:18:33;;;;;;;6.78;5.35;;;;;;;;;;10146310;28;20139;-69
2023/06/16 19:23:27;;;;;;;8.93;5.10;;;;;;;;;;10144631;28;20511;-69
2023/06/16 19:28:20;;;;;;;5.57;5.07;;;;;;;;;;10136833;28;20123;-69
2023/06/16 19:33:15;;;;;;;10.27;5.97;;;;;;;;;;10133819;28;20044;-69
2023/06/16 19:38:10;;;;;;;13.27;5.75;;;;;;;;;;10143846;28;20052;-69
2023/06/16 19:43:03;;;;;;;6.68;5.47;;;;;;;;;;10134595;28;20164;-69
2023/06/16 19:48:01;;;;;;;9.52;6.18;;;;;;;;;;10142718;28;20083;-69
2023/06/16 19:52:55;;;;;;;7.28;6.55;;;;;;;;;;10120148;28;20524;-69
2023/06/16 19:57:49;;;;;;;9.75;5.75;;;;;;;;;;10135470;28;20106;-69
2023/06/16 20:02:43;;;;;;;11.57;6.50;;;;;;;;;;10091163;28;20431;-69
2023/06/16 20:07:36;;;;;;;6.07;5.50;;;;;;;;;;10111834;28;20139;-69
2023/06/16 20:12:31;;;;;;;8.55;5.88;;;;;;;;;;10112707;28;20095;-69
2023/06/16 20:17:25;;;;;;;11.77;6.50;;;;;;;;;;10095121;28;20461;-69
2023/06/16 20:22:19;;;;;;;6.25;5.65;;;;;;;;;;10073119;28;20127;-68
2023/06/16 20:27:12;;;;;;;9.68;5.18;;;;;;;;;;10087510;28;20088;-68
2023/06/16 20:32:07;;;;;;;7.28;6.10;;;;;;;;;;10073805;28;20057;-69
2023/06/16 20:37:01;;;;;;;9.40;5.70;;;;;;;;;;10091745;28;20503;-69
2023/06/16 20:41:55;;;;;;;7.38;6.38;;;;;;;;;;10112446;28;20053;-68
2023/06/16 20:46:49;;;;;;;7.95;5.43;;;;;;;;;;10079700;28;20061;-68
2023/06/16 20:51:44;;;;;;;7.72;5.47;;;;;;;;;;10085311;28;20052;-68
2023/06/16 20:56:38;;;;;;;12.38;5.63;;;;;;;;;;10078226;28;20529;-68
2023/06/16 21:01:39;;;;;;;7.35;6.65;;;;;;;;;;10125498;28;20052;-69
2023/06/16 21:06:33;;;;;;;7.05;6.00;;;;;;;;;;10124029;28;20106;-68
2023/06/16 21:11:30;;;;;;;11.20;6.05;;;;;;;;;;10135713;28;20079;-68
2023/06/16 21:16:24;;;;;;;7.63;5.75;;;;;;;;;;10129344;28;20145;-68
2023/06/16 21:21:18;;;;;;;7.80;7.00;;;;;;;;;;10115213;28;20454;-68
2023/06/16 21:26:12;;;;;;;6.70;5.88;;;;;;;;;;10118922;28;20054;-68
2023/06/16 21:31:06;;;;;;;7.32;6.55;;;;;;;;;;10146858;28;20106;-68
2023/06/16 21:36:00;;;;;;;7.97;5.85;;;;;;;;;;10136423;28;20408;-68
2023/06/16 21:40:53;;;;;;;9.45;7.50;;;;;;;;;;10125505;28;20071;-68
2023/06/16 21:45:47;;;;;;;13.40;9.23;;;;;;;;;;10143581;28;20045;-68
2023/06/16 21:50:40;;;;;;;17.08;9.70;;;;;;;;;;10121474;28;20066;-69
2023/06/16 21:55:33;;;;;;;15.52;9.27;;;;;;;;;;10109244;28;20396;-68
2023/06/16 22:00:27;;;;;;;23.87;13.43;;;;;;;;;;10062342;28;1306285;-68
2023/06/16 22:05:20;;;;;;;11.45;9.95;;;;;;;;;;10113373;28;20079;-68
2023/06/16 22:10:14;;;;;;;11.35;10.13;;;;;;;;;;10147136;28;20059;-68
2023/06/16 22:15:08;;;;;;;21.67;9.75;;;;;;;;;;10147254;28;20499;-68
2023/06/16 22:20:05;;;;;;;9.65;8.82;;;;;;;;;;10148698;28;20041;-68
2023/06/16 22:24:59;;;;;;;11.13;8.85;;;;;;;;;;10146655;28;20470;-68
2023/06/16 22:29:53;;;;;;;12.18;9.63;;;;;;;;;;10117207;28;20069;-68
2023/06/16 22:34:45;;;;;;;11.55;10.30;;;;;;;;;;10136534;28;20049;-67
2023/06/16 22:39:39;;;;;;;11.43;10.32;;;;;;;;;;10112942;28;20400;-68
2023/06/16 22:44:32;;;;;;;15.23;10.80;;;;;;;;;;10129379;28;20098;-68
2023/06/16 22:49:25;;;;;;;13.50;11.23;;;;;;;;;;10125153;28;20479;-69
2023/06/16 22:54:19;;;;;;;11.70;8.60;;;;;;;;;;10142964;28;20060;-68
2023/06/16 22:59:12;;;;;;;9.63;8.20;;;;;;;;;;10113375;28;20144;-68
2023/06/16 23:04:06;;;;;;;9.50;8.55;;;;;;;;;;10143022;28;20442;-68
2023/06/16 23:08:59;;;;;;;10.13;9.07;;;;;;;;;;10144807;28;20057;-68
2023/06/16 23:13:53;;;;;;;15.48;11.20;;;;;;;;;;10144309;28;20514;-68
2023/06/16 23:18:46;;;;;;;10.02;8.95;;;;;;;;;;10145049;28;20056;-68
2023/06/16 23:23:39;;;;;;;13.30;8.68;;;;;;;;;;10144439;28;20056;-68
2023/06/16 23:28:33;;;;;;;13.85;9.57;;;;;;;;;;10145368;28;20084;-68
2023/06/16 23:33:27;;;;;;;11.85;10.13;;;;;;;;;;10144678;28;20454;-67
2023/06/16 23:38:24;;;;;;;11.38;9.48;;;;;;;;;;10142772;28;20135;-68
2023/06/16 23:43:34;;;;;;;9.48;8.05;;;;;;;;;;10140622;28;20045;-67
2023/06/16 23:48:28;;;;;;;9.10;7.50;;;;;;;;;;10131459;28;20128;-67
2023/06/16 23:53:22;;;;;;;7.00;5.80;;;;;;;;;;10123096;28;20048;-68
2023/06/16 23:58:16;;;;;;;8.82;5.38;;;;;;;;;;10132187;28;20053;-67
